Time;durP1;ratioP1;P1;durP2;ratioP2;P2;SDS_P1;SDS_P2;PMS_P1;PMS_P2;Temp;Humidity;BMP_temperature;BMP_pressure;BME280_temperature;BME280_humidity;BME280_pressure;Samples;Min_cycle;Max_cycle;Signal;HPM_P1;HPM_P2
2022/01/17 00:01:46;;;;;;;10.68;1.90;;;6.60;99.90;;;;;;5119498;28;20532;-91
2022/01/17 00:04:12;;;;;;;12.25;1.70;;;6.60;99.90;;;;;;5119539;28;20047;-91
2022/01/17 00:06:39;;;;;;;12.88;2.10;;;6.60;99.90;;;;;;5112111;28;20054;-91
2022/01/17 00:09:05;;;;;;;16.52;3.17;;;6.60;99.90;;;;;;5105815;28;20131;-91
2022/01/17 00:11:34;;;;;;;11.25;2.17;;;6.60;99.90;;;;;;5078618;28;20119;-91
2022/01/17 00:14:00;;;;;;;13.82;2.47;;;6.60;99.90;;;;;;5081884;28;20127;-91
2022/01/17 00:16:38;;;;;;;11.63;2.45;;;6.60;99.90;;;;;;5099144;28;20135;-91
2022/01/17 00:19:19;;;;;;;13.52;2.55;;;6.60;99.90;;;;;;5098448;28;20032;-92
2022/01/17 00:21:44;;;;;;;15.32;2.28;;;6.60;99.90;;;;;;5099638;28;20036;-91
2022/01/17 00:24:10;;;;;;;13.88;2.88;;;6.60;99.90;;;;;;5100883;28;20047;-92
2022/01/17 00:26:36;;;;;;;18.10;3.17;;;6.60;99.90;;;;;;5104174;28;20045;-92
2022/01/17 00:29:01;;;;;;;21.25;2.67;;;6.50;99.90;;;;;;5102414;28;20031;-91
2022/01/17 00:31:27;;;;;;;13.07;2.00;;;6.50;99.90;;;;;;5085400;28;20115;-91
2022/01/17 00:33:53;;;;;;;14.90;2.53;;;6.50;99.90;;;;;;5103685;28;20040;-91
2022/01/17 00:36:18;;;;;;;17.65;2.83;;;6.50;99.90;;;;;;5086846;28;20032;-91
2022/01/17 00:38:44;;;;;;;17.17;3.28;;;6.50;99.90;;;;;;5084988;28;20119;-92
2022/01/17 00:41:09;;;;;;;14.70;2.95;;;6.40;99.90;;;;;;5093647;28;20044;-91
2022/01/17 00:43:35;;;;;;;16.00;2.88;;;6.50;99.90;;;;;;5096355;28;20615;-91
2022/01/17 00:46:01;;;;;;;16.73;2.67;;;6.50;99.90;;;;;;5096406;28;20504;-93
2022/01/17 00:48:27;;;;;;;16.80;2.58;;;6.50;99.90;;;;;;5114189;28;20095;-93
2022/01/17 00:50:52;;;;;;;16.42;2.55;;;6.50;99.90;;;;;;5113022;28;20078;-92
2022/01/17 00:53:18;;;;;;;15.45;2.92;;;6.50;99.90;;;;;;5112702;28;20173;-93
2022/01/17 00:55:44;;;;;;;14.25;2.58;;;6.40;99.90;;;;;;5096382;28;20032;-91
2022/01/17 00:58:09;;;;;;;17.92;2.65;;;6.40;99.90;;;;;;5112755;28;20046;-92
2022/01/17 01:00:36;;;;;;;11.88;1.95;;;6.40;99.90;;;;;;5113186;28;20035;-92
2022/01/17 01:03:02;;;;;;;16.15;2.90;;;6.40;99.90;;;;;;5096158;28;20048;-92
2022/01/17 01:05:28;;;;;;;18.70;2.95;;;6.40;99.90;;;;;;5112924;28;20035;-92
2022/01/17 01:07:56;;;;;;;11.90;2.38;;;6.40;99.90;;;;;;5113022;28;20036;-91
2022/01/17 01:10:22;;;;;;;14.90;2.33;;;6.40;99.90;;;;;;5095476;28;20040;-92
2022/01/17 01:12:49;;;;;;;16.40;2.63;;;6.40;99.90;;;;;;5112857;28;20035;-92
2022/01/17 01:18:37;;;;;;;14.73;2.47;;;6.30;99.90;;;;;;5061464;28;20051;-92
2022/01/17 01:29:14;;;;;;;14.20;2.28;;;6.30;99.90;;;;;;5112235;28;20107;-92
2022/01/17 01:31:46;;;;;;;21.85;3.65;;;6.30;99.90;;;;;;5095221;28;20081;-92
2022/01/17 01:34:13;;;;;;;15.27;2.38;;;6.30;99.90;;;;;;5112157;28;20157;-92
2022/01/17 01:36:39;;;;;;;13.63;2.72;;;6.30;99.90;;;;;;5111394;28;20032;-92
2022/01/17 01:39:06;;;;;;;11.95;1.90;;;6.30;99.90;;;;;;5094791;28;20061;-91
2022/01/17 01:41:43;;;;;;;15.32;2.75;;;6.30;99.90;;;;;;5095089;28;20043;-91
2022/01/17 01:44:17;;;;;;;13.43;2.53;;;6.20;99.90;;;;;;5095209;28;20083;-91
2022/01/17 01:46:44;;;;;;;16.63;2.65;;;6.20;99.90;;;;;;5095383;28;20116;-91
2022/01/17 01:49:11;;;;;;;16.98;2.63;;;6.20;99.90;;;;;;5111815;28;20039;-91
2022/01/17 01:51:36;;;;;;;16.70;3.33;;;6.10;99.90;;;;;;5112066;28;20117;-92
2022/01/17 01:54:03;;;;;;;17.98;2.60;;;6.10;99.90;;;;;;5094491;28;20493;-92
2022/01/17 01:56:29;;;;;;;15.00;2.70;;;6.10;99.90;;;;;;5094956;28;20419;-91
2022/01/17 01:58:55;;;;;;;17.20;3.40;;;6.00;99.90;;;;;;5094800;28;20122;-91
2022/01/17 02:01:21;;;;;;;15.25;2.92;;;6.00;99.90;;;;;;5111846;28;20630;-92
2022/01/17 02:03:46;;;;;;;15.45;2.35;;;6.00;99.90;;;;;;5094468;28;20055;-92
2022/01/17 02:06:12;;;;;;;14.65;2.38;;;6.00;99.90;;;;;;5094964;28;20043;-92
2022/01/17 02:08:37;;;;;;;14.25;2.38;;;6.00;99.90;;;;;;5094524;28;20122;-92
2022/01/17 02:11:03;;;;;;;14.48;3.05;;;5.90;99.90;;;;;;5094545;28;20040;-91
2022/01/17 02:13:29;;;;;;;19.08;2.78;;;5.90;99.90;;;;;;5094177;28;20120;-91
2022/01/17 02:16:04;;;;;;;18.35;2.47;;;5.90;99.90;;;;;;5113254;28;20045;-91
2022/01/17 02:18:30;;;;;;;15.35;2.08;;;6.00;99.90;;;;;;5112427;28;20561;-92
2022/01/17 02:23:47;;;;;;;14.90;2.40;;;5.90;99.90;;;;;;5111822;28;20055;-92
2022/01/17 02:26:14;;;;;;;13.18;2.33;;;5.90;99.90;;;;;;5095550;28;20052;-92
2022/01/17 02:28:55;;;;;;;16.80;2.67;;;5.90;99.90;;;;;;5095517;28;20099;-92
2022/01/17 02:31:23;;;;;;;12.93;2.13;;;5.90;99.90;;;;;;5122075;28;20180;-92
2022/01/17 02:33:50;;;;;;;14.32;2.53;;;5.90;99.90;;;;;;5112742;28;20036;-92
2022/01/17 02:36:16;;;;;;;16.33;2.58;;;5.90;99.90;;;;;;5112765;28;20036;-91
2022/01/17 02:38:42;;;;;;;17.40;3.05;;;5.90;99.90;;;;;;5108059;28;20038;-91
2022/01/17 02:41:08;;;;;;;17.05;2.83;;;5.90;99.90;;;;;;5093571;28;20083;-91
2022/01/17 02:43:35;;;;;;;16.23;2.85;;;5.90;99.90;;;;;;5093035;28;20044;-92
2022/01/17 02:48:32;;;;;;;16.35;2.28;;;5.80;99.90;;;;;;5110524;28;20504;-91
2022/01/17 02:50:59;;;;;;;17.65;3.65;;;5.80;99.90;;;;;;5112028;28;20051;-91
2022/01/17 02:53:26;;;;;;;13.77;2.28;;;5.80;99.90;;;;;;5093396;28;20032;-91
2022/01/17 02:55:59;;;;;;;14.65;2.00;;;5.70;99.90;;;;;;5094139;28;20035;-92
2022/01/17 02:58:27;;;;;;;16.27;2.30;;;5.70;99.90;;;;;;5093260;28;20036;-91
2022/01/17 03:00:55;;;;;;;14.70;2.60;;;5.70;99.90;;;;;;5110263;28;20122;-91
2022/01/17 03:03:26;;;;;;;16.50;2.53;;;5.70;99.90;;;;;;5093303;28;20138;-91
2022/01/17 03:05:52;;;;;;;13.02;2.28;;;5.70;99.90;;;;;;5110532;28;20036;-91
2022/01/17 03:08:22;;;;;;;15.38;2.80;;;5.60;99.90;;;;;;5093478;28;20126;-91
2022/01/17 03:10:48;;;;;;;18.50;3.08;;;5.60;99.90;;;;;;5110260;28;20046;-91
2022/01/17 03:13:16;;;;;;;18.33;2.70;;;5.50;99.90;;;;;;5110198;28;20039;-91
2022/01/17 03:15:43;;;;;;;15.35;2.22;;;5.50;99.90;;;;;;5110650;28;20043;-91
2022/01/17 03:18:08;;;;;;;14.88;2.78;;;5.50;99.90;;;;;;5110549;28;20455;-92
2022/01/17 03:20:34;;;;;;;18.10;2.85;;;5.50;99.90;;;;;;5109980;28;20509;-91
2022/01/17 03:23:01;;;;;;;15.32;2.60;;;5.40;99.90;;;;;;5110770;28;20043;-91
2022/01/17 03:25:27;;;;;;;16.25;2.63;;;5.40;99.90;;;;;;5110180;28;20047;-91
2022/01/17 03:27:53;;;;;;;12.52;2.25;;;5.40;99.90;;;;;;5110386;28;20046;-91
2022/01/17 03:30:19;;;;;;;14.77;2.25;;;5.40;99.90;;;;;;5093069;28;20043;-91
2022/01/17 03:32:45;;;;;;;16.55;2.55;;;5.40;99.90;;;;;;5093501;28;20040;-91
2022/01/17 03:35:11;;;;;;;12.52;2.00;;;5.40;99.90;;;;;;5093062;28;20027;-90
2022/01/17 03:37:36;;;;;;;14.70;3.08;;;5.40;99.90;;;;;;5092266;28;20043;-91
2022/01/17 03:40:04;;;;;;;11.38;1.90;;;5.30;99.90;;;;;;5109770;28;20527;-91
2022/01/17 03:42:29;;;;;;;16.92;2.35;;;5.30;99.90;;;;;;5092948;28;20070;-90
2022/01/17 03:44:55;;;;;;;14.73;2.55;;;5.30;99.90;;;;;;5092896;28;20079;-91
2022/01/17 03:47:20;;;;;;;19.13;2.97;;;5.30;99.90;;;;;;5093414;28;20496;-91
2022/01/17 03:49:46;;;;;;;18.27;2.50;;;5.30;99.90;;;;;;5109628;28;20405;-91
2022/01/17 03:52:12;;;;;;;14.77;2.67;;;5.30;99.90;;;;;;5109504;28;20082;-91
2022/01/17 03:54:37;;;;;;;16.33;2.63;;;5.30;99.90;;;;;;5092954;28;20412;-91
2022/01/17 03:57:03;;;;;;;17.75;2.70;;;5.30;99.90;;;;;;5093112;28;20036;-92
2022/01/17 03:59:29;;;;;;;16.50;2.65;;;5.30;99.90;;;;;;5095241;28;20031;-91
2022/01/17 04:01:55;;;;;;;20.23;2.50;;;5.30;99.90;;;;;;5097113;28;20451;-92
2022/01/17 04:04:21;;;;;;;18.75;2.40;;;5.30;99.90;;;;;;5096916;28;20089;-91
2022/01/17 04:06:46;;;;;;;14.38;2.28;;;5.30;99.90;;;;;;5097151;28;20511;-91
2022/01/17 04:09:12;;;;;;;13.63;2.42;;;5.30;99.90;;;;;;5096952;28;20036;-92
2022/01/17 04:11:38;;;;;;;13.80;1.92;;;5.30;99.90;;;;;;5113612;28;20036;-91
2022/01/17 04:14:05;;;;;;;16.13;2.65;;;5.40;99.90;;;;;;5096755;28;20039;-91
2022/01/17 04:16:31;;;;;;;17.77;2.85;;;5.40;99.90;;;;;;5113894;28;20051;-92
2022/01/17 04:18:57;;;;;;;15.30;2.22;;;5.40;99.90;;;;;;5096659;28;20040;-92
2022/01/17 04:21:23;;;;;;;14.80;2.60;;;5.40;99.90;;;;;;5113659;28;20492;-90
2022/01/17 04:23:48;;;;;;;15.23;2.47;;;5.40;99.90;;;;;;5096122;28;20134;-92
2022/01/17 04:26:14;;;;;;;16.00;2.38;;;5.40;99.90;;;;;;5114134;28;20032;-91
2022/01/17 04:28:40;;;;;;;20.95;2.80;;;5.40;99.90;;;;;;5096407;28;20554;-92
2022/01/17 04:31:06;;;;;;;16.90;2.60;;;5.40;99.90;;;;;;5113460;28;20496;-91
2022/01/17 04:33:32;;;;;;;14.68;2.20;;;5.40;99.90;;;;;;5103694;28;20148;-91
2022/01/17 04:35:57;;;;;;;15.27;2.60;;;5.40;99.90;;;;;;5136425;28;20039;-90
2022/01/17 04:38:23;;;;;;;18.52;2.53;;;5.40;99.90;;;;;;5139160;28;20020;-91
2022/01/17 04:41:00;;;;;;;18.27;3.03;;;5.40;99.90;;;;;;5121484;28;20058;-92
2022/01/17 04:46:05;;;;;;;18.25;2.50;;;5.40;99.90;;;;;;5114361;28;20134;-91
2022/01/17 04:48:31;;;;;;;18.25;2.65;;;5.40;99.90;;;;;;5113108;28;20039;-91
2022/01/17 04:50:58;;;;;;;17.13;2.22;;;5.40;99.90;;;;;;5113062;28;20672;-92
2022/01/17 04:53:25;;;;;;;14.85;2.45;;;5.40;99.90;;;;;;5095317;28;20068;-91
2022/01/17 04:55:50;;;;;;;14.20;2.33;;;5.30;99.90;;;;;;5112748;28;20050;-91
2022/01/17 04:58:16;;;;;;;12.60;2.78;;;5.40;99.90;;;;;;5095917;28;20032;-91
2022/01/17 05:00:49;;;;;;;16.55;2.53;;;5.40;99.90;;;;;;5095922;28;20047;-91
2022/01/17 05:03:20;;;;;;;15.20;2.42;;;5.30;99.90;;;;;;5095488;28;20046;-91
2022/01/17 05:05:47;;;;;;;12.52;2.20;;;5.40;99.90;;;;;;5095979;28;20043;-91
2022/01/17 05:08:13;;;;;;;9.77;2.05;;;5.40;99.90;;;;;;5112579;28;20044;-91
2022/01/17 05:10:39;;;;;;;15.48;3.28;;;5.40;99.90;;;;;;5112227;28;20039;-92
2022/01/17 05:13:05;;;;;;;13.88;1.98;;;5.40;99.90;;;;;;5096135;28;20051;-91
2022/01/17 05:15:37;;;;;;;14.73;2.45;;;5.40;99.90;;;;;;5097398;28;20039;-91
2022/01/17 05:20:36;;;;;;;;;;;5.50;99.90;;;;;;5123997;28;20111;-91
2022/01/17 05:23:02;;;;;;;16.45;2.70;;;5.50;99.90;;;;;;5114215;28;20005;-92
2022/01/17 05:25:28;;;;;;;13.68;2.35;;;5.50;99.90;;;;;;5111524;28;20048;-90
2022/01/17 05:27:53;;;;;;;14.35;2.97;;;5.50;99.90;;;;;;5095338;28;20126;-92
2022/01/17 05:30:21;;;;;;;12.82;2.75;;;5.60;99.90;;;;;;5095191;28;20040;-92
2022/01/17 05:32:48;;;;;;;10.25;2.22;;;5.60;99.90;;;;;;5109447;28;20047;-92
2022/01/17 05:35:14;;;;;;;14.85;2.50;;;5.60;99.90;;;;;;5112057;28;20123;-91
2022/01/17 05:37:41;;;;;;;11.82;2.33;;;5.60;99.90;;;;;;5111018;28;20454;-91
2022/01/17 05:40:09;;;;;;;19.67;3.03;;;5.70;99.90;;;;;;5094651;28;20127;-91
2022/01/17 05:42:34;;;;;;;13.20;2.13;;;5.70;99.90;;;;;;5094600;28;20046;-91
2022/01/17 05:45:01;;;;;;;13.25;2.47;;;5.80;99.90;;;;;;5111916;28;20059;-91
2022/01/17 05:47:27;;;;;;;16.90;2.90;;;5.80;99.90;;;;;;5111535;28;20044;-91
2022/01/17 05:49:52;;;;;;;16.58;3.67;;;5.80;99.90;;;;;;5111279;28;20112;-91
2022/01/17 05:52:18;;;;;;;16.88;2.90;;;5.90;99.90;;;;;;5111551;28;20075;-92
2022/01/17 05:54:44;;;;;;;17.02;3.00;;;5.90;99.90;;;;;;5094202;28;20556;-92
2022/01/17 05:57:10;;;;;;;13.43;2.35;;;5.90;99.90;;;;;;5108505;28;20040;-91
2022/01/17 05:59:36;;;;;;;12.63;2.28;;;6.00;99.90;;;;;;5075460;28;20120;-92
2022/01/17 06:02:01;;;;;;;16.83;2.63;;;6.00;99.90;;;;;;5091520;28;20081;-92
2022/01/17 06:04:27;;;;;;;14.85;3.17;;;6.00;99.90;;;;;;5073869;28;20052;-91
2022/01/17 06:06:53;;;;;;;16.45;2.58;;;6.00;99.90;;;;;;5091390;28;20040;-91
2022/01/17 06:09:18;;;;;;;13.32;2.78;;;6.10;99.90;;;;;;5090921;28;20094;-91
2022/01/17 06:11:44;;;;;;;10.52;2.20;;;6.10;99.90;;;;;;5074093;28;20032;-91
2022/01/17 06:14:15;;;;;;;17.13;3.72;;;6.20;99.90;;;;;;5091167;28;20097;-91
2022/01/17 06:16:40;;;;;;;13.93;2.88;;;6.20;99.90;;;;;;5091186;28;20071;-90
2022/01/17 06:19:06;;;;;;;13.63;3.00;;;6.20;99.90;;;;;;5090694;28;20075;-91
2022/01/17 06:21:32;;;;;;;14.32;3.50;;;6.20;99.90;;;;;;5073506;28;20539;-91
2022/01/17 06:24:00;;;;;;;15.57;3.33;;;6.20;99.90;;;;;;5090488;28;20055;-91
2022/01/17 06:26:26;;;;;;;18.05;3.75;;;6.30;99.90;;;;;;5090817;28;20051;-92
2022/01/17 06:28:51;;;;;;;17.77;3.83;;;6.30;99.90;;;;;;5073851;28;20040;-91
2022/01/17 06:31:17;;;;;;;14.02;3.67;;;6.40;99.90;;;;;;5073725;28;20047;-92
2022/01/17 06:33:43;;;;;;;15.52;3.53;;;6.40;99.90;;;;;;5073449;28;20498;-92
2022/01/17 06:36:09;;;;;;;14.23;3.55;;;6.40;99.90;;;;;;5074420;28;20028;-93
2022/01/17 06:38:34;;;;;;;14.90;4.25;;;6.40;99.90;;;;;;5074191;28;20185;-91
2022/01/17 06:41:00;;;;;;;20.10;4.78;;;6.40;99.90;;;;;;5090505;28;20040;-92
2022/01/17 06:43:25;;;;;;;14.95;4.25;;;6.40;99.90;;;;;;5090200;28;20117;-90
2022/01/17 06:45:51;;;;;;;20.63;4.95;;;6.50;99.90;;;;;;5073480;28;20035;-91
2022/01/17 06:48:16;;;;;;;18.88;4.78;;;6.50;99.90;;;;;;5091659;28;20493;-91
2022/01/17 06:50:42;;;;;;;18.48;4.57;;;6.50;99.90;;;;;;5090265;28;20153;-92
2022/01/17 06:53:08;;;;;;;19.38;4.55;;;6.50;99.90;;;;;;5072799;28;20386;-92
2022/01/17 06:55:34;;;;;;;17.40;5.13;;;6.50;99.90;;;;;;5090586;28;20040;-92
2022/01/17 06:57:59;;;;;;;26.70;5.00;;;6.50;99.90;;;;;;5090473;28;20480;-92
2022/01/17 07:00:25;;;;;;;17.02;5.30;;;6.60;99.90;;;;;;5080523;28;20097;-92
2022/01/17 07:02:51;;;;;;;15.95;4.95;;;6.60;99.90;;;;;;5099565;28;20044;-91
2022/01/17 07:05:16;;;;;;;16.85;5.47;;;6.60;99.90;;;;;;5089721;28;20047;-91
2022/01/17 07:07:42;;;;;;;17.88;5.50;;;6.60;99.90;;;;;;5073319;28;20036;-91
2022/01/17 07:10:08;;;;;;;19.15;6.00;;;6.60;99.90;;;;;;5077119;28;20105;-91
2022/01/17 07:12:37;;;;;;;19.05;6.40;;;6.60;99.90;;;;;;5093674;28;20032;-91
2022/01/17 07:15:04;;;;;;;21.15;6.15;;;6.70;99.90;;;;;;5093202;28;20122;-91
2022/01/17 07:17:30;;;;;;;18.60;5.63;;;6.70;99.90;;;;;;5110812;28;20683;-92
2022/01/17 07:19:55;;;;;;;23.08;6.72;;;6.70;99.90;;;;;;5092749;28;20039;-92
2022/01/17 07:22:21;;;;;;;22.67;6.25;;;6.70;99.90;;;;;;5110344;28;20485;-92
2022/01/17 07:24:47;;;;;;;24.25;7.18;;;6.70;99.90;;;;;;5093153;28;20502;-91
2022/01/17 07:27:14;;;;;;;20.23;6.10;;;6.70;99.90;;;;;;5087434;28;20043;-91
2022/01/17 07:29:40;;;;;;;27.20;7.32;;;6.60;99.90;;;;;;5082439;28;20039;-92
2022/01/17 07:32:07;;;;;;;19.30;5.95;;;6.60;99.90;;;;;;5083949;28;20035;-92
2022/01/17 07:34:33;;;;;;;22.02;6.22;;;6.60;99.90;;;;;;5107647;28;20035;-91
2022/01/17 07:36:59;;;;;;;27.02;6.75;;;6.60;99.90;;;;;;5107274;28;20153;-91
2022/01/17 07:39:26;;;;;;;22.45;6.00;;;6.70;99.90;;;;;;5115267;28;20040;-92
2022/01/17 07:41:52;;;;;;;18.20;5.63;;;6.60;99.90;;;;;;5116737;28;20047;-91
2022/01/17 07:44:19;;;;;;;23.00;6.82;;;6.70;99.90;;;;;;5107805;28;20096;-90
2022/01/17 07:46:58;;;;;;;23.00;6.93;;;6.70;99.90;;;;;;5080062;28;20040;-92
2022/01/17 07:49:25;;;;;;;20.38;6.10;;;6.70;99.90;;;;;;5096645;28;20040;-91
2022/01/17 07:52:03;;;;;;;22.35;6.47;;;6.70;99.90;;;;;;5095902;28;20039;-92
2022/01/17 07:54:37;;;;;;;17.27;5.50;;;6.70;99.90;;;;;;5090873;28;20028;-92
2022/01/17 07:57:03;;;;;;;18.90;7.07;;;6.70;99.90;;;;;;5097205;28;20092;-93
2022/01/17 07:59:30;;;;;;;25.50;5.85;;;6.70;99.90;;;;;;5116773;28;20032;-93
2022/01/17 08:01:56;;;;;;;16.75;5.45;;;6.70;99.90;;;;;;5098614;28;20126;-93
2022/01/17 08:04:22;;;;;;;26.48;7.03;;;6.70;99.90;;;;;;5117893;28;20031;-93
2022/01/17 08:06:49;;;;;;;21.45;5.82;;;6.80;99.90;;;;;;5118355;28;20069;-93
2022/01/17 08:09:26;;;;;;;28.80;6.70;;;6.80;99.90;;;;;;5102607;28;20043;-93
2022/01/17 08:11:52;;;;;;;25.73;6.10;;;6.80;99.90;;;;;;5103017;28;20071;-92
2022/01/17 08:14:18;;;;;;;26.27;6.60;;;6.90;99.90;;;;;;5116475;28;20718;-92
2022/01/17 08:16:44;;;;;;;17.90;6.15;;;6.90;99.90;;;;;;5100095;28;20032;-92
2022/01/17 08:19:10;;;;;;;26.33;6.95;;;6.90;99.90;;;;;;5116807;28;20396;-93
2022/01/17 08:21:35;;;;;;;26.52;6.80;;;6.90;99.90;;;;;;5099642;28;20540;-92
2022/01/17 08:24:01;;;;;;;19.85;5.53;;;6.90;99.90;;;;;;5116405;28;20051;-92
2022/01/17 08:26:27;;;;;;;24.40;5.80;;;6.90;99.90;;;;;;5117337;28;20192;-93
2022/01/17 08:28:53;;;;;;;26.58;6.10;;;6.90;99.90;;;;;;5116911;28;20047;-92
2022/01/17 08:31:19;;;;;;;28.90;6.95;;;6.90;99.90;;;;;;5116501;28;20036;-92
2022/01/17 08:33:45;;;;;;;24.25;6.78;;;6.90;99.90;;;;;;5116223;28;20035;-92
2022/01/17 08:36:11;;;;;;;25.27;6.35;;;7.00;99.90;;;;;;5115841;28;20081;-92
2022/01/17 08:38:38;;;;;;;17.83;5.07;;;6.90;99.90;;;;;;5116611;28;20047;-93
2022/01/17 08:41:04;;;;;;;23.35;5.70;;;7.00;99.90;;;;;;5115565;28;20083;-92
2022/01/17 08:43:30;;;;;;;23.23;5.20;;;7.00;99.90;;;;;;5098746;28;20058;-92
2022/01/17 08:45:56;;;;;;;26.75;5.53;;;7.00;99.90;;;;;;5075496;28;20557;-93
2022/01/17 08:48:21;;;;;;;27.23;4.95;;;7.00;99.90;;;;;;5075204;28;20032;-92
2022/01/17 08:50:48;;;;;;;21.05;5.55;;;7.00;99.90;;;;;;5092596;28;20040;-92
2022/01/17 08:53:15;;;;;;;22.55;5.05;;;7.00;99.90;;;;;;5075721;28;20058;-93
2022/01/17 08:55:43;;;;;;;25.80;4.85;;;7.00;99.90;;;;;;5076441;28;20077;-91
2022/01/17 08:58:09;;;;;;;24.92;5.00;;;7.10;99.90;;;;;;5092839;28;20041;-91
2022/01/17 09:00:37;;;;;;;25.48;5.88;;;7.10;99.90;;;;;;5075485;28;20405;-92
2022/01/17 09:03:03;;;;;;;24.20;4.72;;;7.10;99.90;;;;;;5094082;28;20074;-92
2022/01/17 09:05:30;;;;;;;23.00;4.53;;;7.10;99.90;;;;;;5092548;28;20081;-91
2022/01/17 09:07:56;;;;;;;27.92;5.13;;;7.10;99.90;;;;;;5092806;28;20405;-92
2022/01/17 09:10:22;;;;;;;23.05;4.50;;;7.20;99.90;;;;;;5075531;28;20040;-92
2022/01/17 09:12:49;;;;;;;27.70;5.65;;;7.20;99.90;;;;;;5093672;28;20040;-92
2022/01/17 09:15:14;;;;;;;21.75;5.63;;;7.20;99.90;;;;;;5075503;28;20039;-92
2022/01/17 09:17:40;;;;;;;23.85;5.38;;;7.30;99.90;;;;;;5092193;28;20047;-93
2022/01/17 09:20:06;;;;;;;22.85;4.85;;;7.20;99.90;;;;;;5096244;28;20536;-92
2022/01/17 09:22:32;;;;;;;31.90;4.85;;;7.30;99.90;;;;;;5136891;28;20048;-92
2022/01/17 09:24:58;;;;;;;24.58;4.75;;;7.30;99.90;;;;;;5135763;28;20084;-93
2022/01/17 09:27:25;;;;;;;21.83;4.60;;;7.30;99.90;;;;;;5121501;28;20035;-93
2022/01/17 09:29:51;;;;;;;23.75;5.05;;;7.30;99.90;;;;;;5132993;28;20079;-92
2022/01/17 09:32:17;;;;;;;27.88;4.88;;;7.30;99.90;;;;;;5116426;28;20028;-93
2022/01/17 09:34:43;;;;;;;26.13;5.38;;;7.40;99.90;;;;;;5092681;28;20161;-93
2022/01/17 09:37:10;;;;;;;27.58;5.93;;;7.40;99.90;;;;;;5089448;28;20039;-93
2022/01/17 09:39:37;;;;;;;30.88;6.00;;;7.50;99.90;;;;;;5109901;28;20035;-92
2022/01/17 09:42:08;;;;;;;26.52;5.47;;;7.50;99.90;;;;;;5093888;28;20157;-92
2022/01/17 09:44:34;;;;;;;38.70;6.00;;;7.50;99.90;;;;;;5110442;28;20047;-92
2022/01/17 09:47:04;;;;;;;25.35;5.53;;;7.60;99.90;;;;;;5111357;28;20526;-93
2022/01/17 09:49:36;;;;;;;26.48;4.75;;;7.60;99.90;;;;;;5093911;28;20039;-93
2022/01/17 09:52:13;;;;;;;26.60;5.18;;;7.70;99.90;;;;;;5094058;28;20035;-93
2022/01/17 09:54:43;;;;;;;29.88;5.20;;;7.70;99.90;;;;;;5095006;28;20035;-93
2022/01/17 09:57:10;;;;;;;28.20;5.47;;;7.80;99.90;;;;;;5094542;28;20043;-91
2022/01/17 09:59:39;;;;;;;30.55;6.43;;;7.80;99.90;;;;;;5095312;28;20032;-92
2022/01/17 10:02:05;;;;;;;27.55;5.28;;;7.90;99.90;;;;;;5095062;28;20039;-92
2022/01/17 10:04:32;;;;;;;33.40;5.10;;;8.00;99.90;;;;;;5111587;28;20047;-92
2022/01/17 10:06:59;;;;;;;28.27;6.25;;;8.00;99.90;;;;;;5095015;28;20043;-92
2022/01/17 10:09:28;;;;;;;33.60;5.93;;;8.10;99.90;;;;;;5095047;28;20503;-92
2022/01/17 10:12:14;;;;;;;34.17;5.55;;;8.10;99.90;;;;;;5112990;28;20075;-91
2022/01/17 10:14:57;;;;;;;30.27;5.85;;;8.20;99.90;;;;;;5111533;28;20027;-92
2022/01/17 10:17:23;;;;;;;25.77;5.13;;;8.20;99.90;;;;;;5111873;28;20409;-91
2022/01/17 10:20:00;;;;;;;29.92;5.95;;;8.30;99.90;;;;;;5112037;28;20051;-92
2022/01/17 10:22:35;;;;;;;31.73;5.05;;;8.30;99.90;;;;;;5111374;28;20119;-91
2022/01/17 10:26:00;;;;;;;29.38;5.75;;;8.30;99.90;;;;;;5094096;28;20039;-92
2022/01/17 10:28:55;;;;;;;30.48;5.18;;;8.40;99.90;;;;;;5100544;28;20057;-92
2022/01/17 10:34:52;;;;;;;31.55;5.90;;;8.40;99.90;;;;;;5110655;28;20051;-92
2022/01/17 10:36:50;;;;;;;31.50;5.15;;;8.50;99.90;;;;;;5110867;28;20085;-92
2022/01/17 10:39:16;;;;;;;32.13;5.80;;;8.60;99.90;;;;;;5111675;28;20067;-91
2022/01/17 10:41:42;;;;;;;27.63;6.00;;;8.60;99.90;;;;;;5111056;28;20051;-91
2022/01/17 10:44:08;;;;;;;30.63;6.32;;;8.70;99.90;;;;;;5105483;28;20043;-91
2022/01/17 10:46:35;;;;;;;29.15;5.45;;;8.70;99.90;;;;;;5112497;28;20039;-91
2022/01/17 10:49:03;;;;;;;30.85;5.65;;;8.80;99.90;;;;;;5093126;28;20070;-91
2022/01/17 10:51:33;;;;;;;28.90;6.20;;;8.80;99.90;;;;;;5093888;28;20519;-91
2022/01/17 10:54:14;;;;;;;28.73;5.53;;;8.90;99.90;;;;;;5110674;28;20374;-92
2022/01/17 10:56:53;;;;;;;31.70;5.70;;;9.00;99.90;;;;;;5111187;28;20032;-92
2022/01/17 10:59:27;;;;;;;31.95;6.80;;;9.20;99.90;;;;;;5094305;28;20039;-92
2022/01/17 11:01:54;;;;;;;31.40;6.43;;;9.30;99.90;;;;;;5092789;28;20043;-92
2022/01/17 11:04:34;;;;;;;26.55;6.68;;;9.50;99.90;;;;;;5093857;28;20043;-92
2022/01/17 11:07:08;;;;;;;28.52;5.80;;;9.60;99.90;;;;;;5092875;28;20036;-92
2022/01/17 11:09:47;;;;;;;31.08;6.18;;;9.70;99.90;;;;;;5110797;28;20051;-92
2022/01/17 11:12:14;;;;;;;33.10;6.65;;;9.80;99.90;;;;;;5110411;28;20122;-92
2022/01/17 11:14:41;;;;;;;35.17;8.35;;;9.80;99.90;;;;;;5097603;28;20118;-92
2022/01/17 11:17:38;;;;;;;27.75;7.30;;;9.80;99.90;;;;;;5090364;28;20085;-91
2022/01/17 11:20:08;;;;;;;31.70;6.68;;;9.90;99.90;;;;;;5073649;28;20127;-91
2022/01/17 11:22:39;;;;;;;26.08;5.78;;;9.90;99.90;;;;;;5082245;28;20523;-91
2022/01/17 11:25:07;;;;;;;31.58;6.82;;;9.90;99.90;;;;;;5084626;28;20394;-91
2022/01/17 11:27:33;;;;;;;33.80;6.80;;;9.90;99.90;;;;;;5077787;28;20039;-92
2022/01/17 11:30:00;;;;;;;29.25;6.85;;;9.90;99.90;;;;;;5086288;28;20498;-92
2022/01/17 11:32:26;;;;;;;34.80;7.00;;;9.90;99.90;;;;;;5086543;28;20477;-91
2022/01/17 11:35:00;;;;;;;33.88;7.43;;;9.90;99.90;;;;;;5093183;28;20066;-92
2022/01/17 11:37:27;;;;;;;32.97;7.18;;;9.90;99.90;;;;;;5110611;28;20040;-93
2022/01/17 11:39:57;;;;;;;29.85;6.72;;;9.90;99.90;;;;;;5093158;28;20031;-91
2022/01/17 11:42:33;;;;;;;27.00;6.85;;;10.00;99.90;;;;;;5110273;28;20096;-90
2022/01/17 11:45:00;;;;;;;36.65;7.80;;;10.00;99.90;;;;;;5110108;28;20042;-91
2022/01/17 11:47:45;;;;;;;37.03;8.05;;;10.00;99.90;;;;;;5110488;28;20039;-91
2022/01/17 11:50:29;;;;;;;33.78;7.60;;;10.30;99.90;;;;;;5110349;28;20442;-92
2022/01/17 11:52:56;;;;;;;31.77;6.63;;;10.60;99.90;;;;;;5093157;28;20043;-91
2022/01/17 11:55:40;;;;;;;32.88;8.57;;;10.80;99.90;;;;;;5109973;28;20104;-91
2022/01/17 11:58:19;;;;;;;32.50;7.50;;;11.00;99.90;;;;;;5110493;28;20043;-90
2022/01/17 12:01:05;;;;;;;32.83;7.97;;;11.10;99.90;;;;;;5093282;28;20122;-91
2022/01/17 12:03:47;;;;;;;31.50;6.95;;;11.10;99.90;;;;;;5092271;28;20051;-91
2022/01/17 12:06:28;;;;;;;38.80;8.32;;;11.10;99.90;;;;;;5093734;28;20032;-92
2022/01/17 12:09:19;;;;;;;31.50;8.70;;;11.20;99.90;;;;;;5093203;28;20051;-91
2022/01/17 12:11:47;;;;;;;39.05;8.50;;;11.30;99.90;;;;;;5110168;28;20047;-91
2022/01/17 12:14:34;;;;;;;36.00;8.23;;;11.40;99.90;;;;;;5092923;28;20389;-91
2022/01/17 12:17:19;;;;;;;36.13;8.15;;;11.70;99.90;;;;;;5109845;28;20039;-91
2022/01/17 12:20:03;;;;;;;34.50;8.05;;;12.10;99.90;;;;;;5112239;28;20127;-90
2022/01/17 12:22:49;;;;;;;30.50;8.15;;;12.30;99.90;;;;;;5113715;28;20039;-91
2022/01/17 12:25:22;;;;;;;35.30;8.23;;;12.40;99.90;;;;;;5096194;28;20051;-92
2022/01/17 12:27:49;;;;;;;32.63;7.60;;;12.30;99.90;;;;;;5114417;28;20035;-92
2022/01/17 12:30:16;;;;;;;35.58;7.68;;;12.10;99.90;;;;;;5113628;28;20454;-92
2022/01/17 12:32:45;;;;;;;35.53;8.70;;;12.00;99.90;;;;;;5113621;28;20043;-92
2022/01/17 12:35:30;;;;;;;33.88;9.35;;;11.90;99.90;;;;;;5107226;28;20036;-92
2022/01/17 12:38:06;;;;;;;31.95;7.75;;;11.80;99.90;;;;;;5099185;28;20044;-92
2022/01/17 12:40:43;;;;;;;30.80;7.47;;;11.70;99.90;;;;;;5078487;28;20043;-92
2022/01/17 12:43:14;;;;;;;30.02;8.02;;;11.60;99.90;;;;;;5104426;28;20092;-92
2022/01/17 12:45:54;;;;;;;22.20;5.82;;;11.50;99.90;;;;;;5100482;28;20110;-91
2022/01/17 12:48:23;;;;;;;37.80;7.60;;;11.40;99.90;;;;;;5102094;28;20044;-92
2022/01/17 12:50:50;;;;;;;31.73;6.47;;;11.30;99.90;;;;;;5084329;28;20043;-91
2022/01/17 12:53:18;;;;;;;25.45;6.03;;;11.20;99.90;;;;;;5077834;28;20036;-92
2022/01/17 12:56:08;;;;;;;24.73;6.10;;;11.20;99.90;;;;;;5084575;28;20046;-92
2022/01/17 12:58:36;;;;;;;30.55;7.38;;;11.20;99.90;;;;;;5101119;28;20042;-92
2022/01/17 13:01:07;;;;;;;30.10;7.15;;;11.20;99.90;;;;;;5106593;28;20048;-92
2022/01/17 13:03:36;;;;;;;29.33;6.45;;;11.20;99.90;;;;;;5094737;28;20447;-93
2022/01/17 13:06:05;;;;;;;27.45;6.20;;;11.20;99.90;;;;;;5096272;28;20055;-92
2022/01/17 13:08:31;;;;;;;26.40;6.38;;;11.10;99.90;;;;;;5113892;28;20122;-91
2022/01/17 13:10:57;;;;;;;29.23;6.63;;;11.10;99.90;;;;;;5114351;28;20055;-92
2022/01/17 13:13:24;;;;;;;25.70;6.00;;;11.00;99.90;;;;;;5105319;28;20035;-91
2022/01/17 13:15:54;;;;;;;26.83;6.07;;;11.00;99.90;;;;;;5099897;28;20052;-92
2022/01/17 13:18:20;;;;;;;25.70;6.15;;;11.00;99.90;;;;;;5095565;28;20035;-92